Time;durP1;ratioP1;P1;durP2;ratioP2;P2;SDS_P1;SDS_P2;PMS_P1;PMS_P2;Temp;Humidity;BMP_temperature;BMP_pressure;BME280_temperature;BME280_humidity;BME280_pressure;Samples;Min_cycle;Max_cycle;Signal;HPM_P1;HPM_P2
2023/01/01 00:02:19;;;;;;;21.13;19.10;;;12.80;1.00;;;;;;5055131;28;20174;-36
2023/01/01 00:04:46;;;;;;;18.73;16.93;;;12.80;1.00;;;;;;5055340;28;20213;-36
2023/01/01 00:07:11;;;;;;;21.77;16.60;;;12.80;1.00;;;;;;5054387;28;20185;-37
2023/01/01 00:12:21;;;;;;;16.43;14.80;;;12.80;1.00;;;;;;5054392;28;20185;-37
2023/01/01 00:14:47;;;;;;;15.03;13.57;;;12.80;1.00;;;;;;5054019;28;20475;-37
2023/01/01 00:17:13;;;;;;;14.53;12.97;;;12.80;1.00;;;;;;5053639;28;20224;-38
2023/01/01 00:19:38;;;;;;;13.40;11.50;;;12.80;1.00;;;;;;5055588;28;20217;-36
2023/01/01 00:22:04;;;;;;;14.00;12.00;;;12.80;1.00;;;;;;5055044;28;20502;-37
2023/01/01 00:24:29;;;;;;;13.63;12.23;;;12.80;1.00;;;;;;5052541;28;20581;-37
2023/01/01 00:26:55;;;;;;;12.73;11.43;;;12.80;1.00;;;;;;5054144;28;20457;-38
2023/01/01 00:29:21;;;;;;;12.70;11.40;;;12.80;99.90;;;;;;5053222;28;20669;-37
2023/01/01 00:31:46;;;;;;;12.83;11.53;;;12.80;99.90;;;;;;5056257;28;20178;-36
2023/01/01 00:34:12;;;;;;;13.30;12.00;;;12.80;14.00;;;;;;5054785;28;20213;-36
2023/01/01 00:36:38;;;;;;;14.97;12.27;;;12.80;1.00;;;;;;5053773;28;20178;-39
2023/01/01 00:39:04;;;;;;;13.50;12.20;;;12.80;1.00;;;;;;5052497;28;20458;-37
2023/01/01 00:41:30;;;;;;;12.37;11.07;;;12.80;1.00;;;;;;5052860;28;20180;-37
2023/01/01 00:43:56;;;;;;;12.33;11.07;;;12.80;1.00;;;;;;5052085;28;20970;-37
2023/01/01 00:46:21;;;;;;;12.63;11.33;;;12.80;1.00;;;;;;5052593;28;20254;-36
2023/01/01 00:48:47;;;;;;;11.67;10.47;;;12.80;1.00;;;;;;5053099;28;20268;-37
2023/01/01 00:51:12;;;;;;;12.00;10.87;;;12.80;1.00;;;;;;5056576;28;20527;-35
2023/01/01 00:53:38;;;;;;;11.90;10.70;;;12.80;1.00;;;;;;5057221;28;20209;-36
2023/01/01 00:56:04;;;;;;;10.07;9.03;;;12.80;1.00;;;;;;5057146;28;20281;-36
2023/01/01 00:58:30;;;;;;;12.10;10.90;;;12.80;1.00;;;;;;5058367;28;20193;-37
2023/01/01 01:00:55;;;;;;;11.23;10.13;;;12.80;1.00;;;;;;5059001;28;20440;-35
2023/01/01 01:03:27;;;;;;;12.13;10.67;;;12.80;1.00;;;;;;5059114;28;20181;-36
2023/01/01 01:05:57;;;;;;;11.87;10.67;;;12.80;1.00;;;;;;5059466;28;20580;-35
2023/01/01 01:08:23;;;;;;;12.23;10.83;;;12.80;1.00;;;;;;5059674;28;20725;-36
2023/01/01 01:10:49;;;;;;;11.70;10.57;;;12.80;1.00;;;;;;5058574;28;20451;-36
2023/01/01 01:13:15;;;;;;;12.80;10.67;;;12.80;99.90;;;;;;5057315;28;20468;-36
2023/01/01 01:15:40;;;;;;;11.00;9.80;;;12.80;99.90;;;;;;5057317;28;20181;-36
2023/01/01 01:18:06;;;;;;;11.80;10.60;;;12.80;99.90;;;;;;5056373;28;20170;-37
2023/01/01 01:20:32;;;;;;;14.23;11.90;;;12.80;99.90;;;;;;5055033;28;20185;-36
2023/01/01 01:22:57;;;;;;;12.60;10.50;;;12.80;99.90;;;;;;5054472;28;20271;-36
2023/01/01 01:25:23;;;;;;;12.37;11.17;;;12.80;99.90;;;;;;5054962;28;20509;-36
2023/01/01 01:27:49;;;;;;;13.40;11.00;;;12.80;99.90;;;;;;5056139;28;20178;-36
2023/01/01 01:30:14;;;;;;;12.07;10.70;;;12.70;99.90;;;;;;5074539;28;20194;-37
2023/01/01 01:32:40;;;;;;;12.60;11.30;;;12.70;99.90;;;;;;5074145;28;20188;-36
2023/01/01 01:35:06;;;;;;;14.30;12.80;;;12.80;99.90;;;;;;5074993;28;20186;-36
2023/01/01 01:37:32;;;;;;;12.00;10.73;;;12.70;99.90;;;;;;5058878;28;20177;-36
2023/01/01 01:39:58;;;;;;;11.90;10.70;;;12.70;99.90;;;;;;5058934;28;20922;-37
2023/01/01 01:42:24;;;;;;;11.80;10.60;;;12.70;1.00;;;;;;5058139;28;20285;-36
2023/01/01 01:44:50;;;;;;;11.87;10.67;;;12.70;1.00;;;;;;5059578;28;20534;-36
2023/01/01 01:47:33;;;;;;;11.27;9.63;;;12.70;1.00;;;;;;5058360;28;20178;-37
2023/01/01 01:50:08;;;;;;;13.93;12.57;;;12.70;99.90;;;;;;5057808;28;20185;-36
2023/01/01 01:52:36;;;;;;;14.73;11.87;;;12.70;99.90;;;;;;5057605;28;20734;-37
2023/01/01 01:55:04;;;;;;;14.40;11.57;;;12.70;99.90;;;;;;5054630;28;20454;-36
2023/01/01 01:57:30;;;;;;;16.20;13.53;;;12.70;99.90;;;;;;5054564;28;20507;-36
2023/01/01 01:59:56;;;;;;;15.37;12.93;;;12.60;99.90;;;;;;5054980;28;20523;-36
2023/01/01 02:02:47;;;;;;;15.20;12.60;;;12.60;99.90;;;;;;5056176;28;20532;-36
2023/01/01 02:05:13;;;;;;;18.23;15.13;;;12.60;99.90;;;;;;5040735;28;20778;-36
2023/01/01 02:07:39;;;;;;;16.33;13.80;;;12.60;99.90;;;;;;5054972;28;20435;-36
2023/01/01 02:10:05;;;;;;;13.47;12.00;;;12.60;99.90;;;;;;5057244;28;20870;-36
2023/01/01 02:12:31;;;;;;;13.67;12.23;;;12.60;99.90;;;;;;5058769;28;20416;-36
2023/01/01 02:14:57;;;;;;;13.47;11.77;;;12.60;99.90;;;;;;5058580;28;20446;-36
2023/01/01 02:17:33;;;;;;;14.83;12.10;;;12.60;99.90;;;;;;5058657;28;20439;-36
2023/01/01 02:20:18;;;;;;;13.70;10.70;;;12.60;99.90;;;;;;5039769;28;20951;-35
2023/01/01 02:23:13;;;;;;;12.90;10.53;;;12.60;99.90;;;;;;5056488;28;20396;-36
2023/01/01 02:26:17;;;;;;;12.40;10.20;;;12.60;99.90;;;;;;5057036;28;20432;-37
2023/01/01 02:29:02;;;;;;;10.33;9.33;;;12.60;99.90;;;;;;5057110;28;20408;-37
2023/01/01 02:31:34;;;;;;;10.00;9.00;;;12.60;99.90;;;;;;5057592;28;20831;-37
2023/01/01 02:34:04;;;;;;;10.37;9.23;;;12.60;99.90;;;;;;5055727;28;20467;-37
2023/01/01 02:36:31;;;;;;;11.50;10.07;;;12.60;99.90;;;;;;5055292;28;20420;-36
2023/01/01 02:39:53;;;;;;;9.70;8.20;;;12.60;99.90;;;;;;5039601;28;20523;-37
2023/01/01 02:42:19;;;;;;;9.40;8.17;;;12.60;99.90;;;;;;5057421;28;20423;-36
2023/01/01 02:44:47;;;;;;;8.40;7.60;;;12.60;37.80;;;;;;5056812;28;20463;-37
2023/01/01 02:47:16;;;;;;;8.07;6.97;;;12.70;1.00;;;;;;5058651;28;20240;-37
2023/01/01 02:50:07;;;;;;;8.50;7.23;;;12.70;1.00;;;;;;5063603;28;20481;-36
2023/01/01 02:52:54;;;;;;;7.73;6.97;;;12.70;1.00;;;;;;5062202;28;20424;-37
2023/01/01 02:55:36;;;;;;;7.80;6.90;;;12.70;1.00;;;;;;5062456;28;20840;-37
2023/01/01 03:01:42;;;;;;;8.73;7.10;;;12.70;1.00;;;;;;5051628;28;20885;-36
2023/01/01 03:04:20;;;;;;;8.40;7.50;;;12.70;1.00;;;;;;5053476;28;20725;-36
2023/01/01 03:07:19;;;;;;;8.30;7.50;;;12.70;1.00;;;;;;5053738;28;20434;-36
2023/01/01 03:10:23;;;;;;;10.13;6.80;;;12.70;1.00;;;;;;5001737;28;20424;-36
2023/01/01 03:13:31;;;;;;;8.30;6.70;;;12.70;1.00;;;;;;5046038;28;20462;-36
2023/01/01 03:16:01;;;;;;;9.37;7.40;;;12.70;1.00;;;;;;5050613;28;20420;-36
2023/01/01 03:18:34;;;;;;;9.47;6.67;;;12.70;1.00;;;;;;5054829;28;20865;-36
2023/01/01 03:21:01;;;;;;;8.63;6.97;;;12.70;1.00;;;;;;5055905;28;20431;-36
2023/01/01 03:23:34;;;;;;;7.43;6.73;;;12.70;1.00;;;;;;5053892;28;20486;-35
2023/01/01 03:26:04;;;;;;;7.27;6.57;;;12.70;1.00;;;;;;5055426;28;20503;-36
2023/01/01 03:28:35;;;;;;;6.90;6.20;;;12.70;1.00;;;;;;5055854;28;20688;-36
2023/01/01 03:31:00;;;;;;;8.40;6.50;;;12.70;1.00;;;;;;5054016;28;20427;-36
2023/01/01 03:33:33;;;;;;;7.13;6.23;;;12.70;1.00;;;;;;5055069;28;20773;-36
2023/01/01 03:36:04;;;;;;;6.23;5.53;;;12.70;1.00;;;;;;5053107;28;20273;-36
2023/01/01 03:38:37;;;;;;;5.60;5.07;;;12.70;1.00;;;;;;5050390;28;20882;-36
2023/01/01 03:41:23;;;;;;;5.60;4.97;;;12.70;1.00;;;;;;5049134;28;20508;-36
2023/01/01 03:43:53;;;;;;;7.57;5.70;;;12.70;1.00;;;;;;5050923;28;20482;-37
2023/01/01 03:46:23;;;;;;;8.23;5.20;;;12.70;1.00;;;;;;5052031;28;20483;-41
2023/01/01 03:48:55;;;;;;;6.40;5.10;;;12.70;1.00;;;;;;5052436;28;20429;-36
2023/01/01 03:51:56;;;;;;;5.43;4.80;;;12.70;1.00;;;;;;5035319;28;20414;-36
2023/01/01 03:54:46;;;;;;;5.73;4.83;;;12.70;1.00;;;;;;5004537;28;20471;-37
2023/01/01 03:57:44;;;;;;;6.93;5.03;;;12.70;1.00;;;;;;5055285;28;20602;-35
2023/01/01 04:00:18;;;;;;;6.90;4.63;;;12.70;1.00;;;;;;5054572;28;20419;-38
2023/01/01 04:03:08;;;;;;;6.80;5.00;;;12.70;1.00;;;;;;5053156;28;20424;-37
2023/01/01 04:05:39;;;;;;;7.67;5.50;;;12.70;1.00;;;;;;5052555;28;20506;-36
2023/01/01 04:08:05;;;;;;;8.87;5.70;;;12.60;1.00;;;;;;5052420;28;20416;-35
2023/01/01 04:10:33;;;;;;;7.00;5.63;;;12.60;1.00;;;;;;5052433;28;20488;-36
2023/01/01 04:13:02;;;;;;;6.10;5.50;;;12.60;1.00;;;;;;5052275;28;20538;-37
2023/01/01 04:15:28;;;;;;;6.67;4.63;;;12.60;1.00;;;;;;5053677;28;20823;-36
2023/01/01 04:17:54;;;;;;;6.90;5.80;;;12.50;1.00;;;;;;5053489;28;20779;-36
2023/01/01 04:20:20;;;;;;;6.30;4.90;;;12.50;1.00;;;;;;5054540;28;20182;-36
2023/01/01 04:22:45;;;;;;;5.70;5.10;;;12.50;1.00;;;;;;5056964;28;20198;-37
2023/01/01 04:25:11;;;;;;;6.87;5.30;;;12.50;1.00;;;;;;5061155;28;20423;-36
2023/01/01 04:27:38;;;;;;;5.80;5.00;;;12.50;1.00;;;;;;5059982;28;20623;-37
2023/01/01 04:30:05;;;;;;;6.33;5.73;;;12.50;1.00;;;;;;5059264;28;20668;-36
2023/01/01 04:32:31;;;;;;;6.50;5.80;;;12.50;3.30;;;;;;5059565;28;20450;-36
2023/01/01 04:34:57;;;;;;;5.80;4.67;;;12.40;15.60;;;;;;5059548;28;20773;-35
2023/01/01 04:37:22;;;;;;;6.00;5.00;;;12.40;36.90;;;;;;5059577;28;20174;-36
2023/01/01 04:39:49;;;;;;;6.67;5.17;;;12.40;68.80;;;;;;5057676;28;20427;-37
2023/01/01 04:42:14;;;;;;;5.90;4.90;;;12.40;99.90;;;;;;5059749;28;20197;-37
2023/01/01 04:44:40;;;;;;;6.50;5.10;;;12.40;99.90;;;;;;5060069;28;20456;-36
2023/01/01 04:47:06;;;;;;;5.70;4.83;;;12.40;99.90;;;;;;5059899;28;20190;-37
2023/01/01 04:49:31;;;;;;;8.13;5.23;;;12.30;99.90;;;;;;5061009;28;20208;-36
2023/01/01 04:51:57;;;;;;;6.87;5.67;;;12.30;99.90;;;;;;5058057;28;20753;-36
2023/01/01 04:54:23;;;;;;;7.37;6.47;;;12.30;99.90;;;;;;5058581;28;20193;-37
2023/01/01 04:56:48;;;;;;;6.43;5.50;;;12.30;99.90;;;;;;5057117;28;20228;-37
2023/01/01 04:59:14;;;;;;;6.57;5.30;;;12.30;99.90;;;;;;5057753;28;20178;-36
2023/01/01 05:01:39;;;;;;;4.80;4.10;;;12.30;99.90;;;;;;5057665;28;20208;-36
2023/01/01 05:04:05;;;;;;;6.47;5.67;;;12.30;99.90;;;;;;5058725;28;20224;-36
2023/01/01 05:06:31;;;;;;;6.07;4.57;;;12.20;99.90;;;;;;5058559;28;20185;-36
2023/01/01 05:08:58;;;;;;;5.23;4.47;;;12.20;99.90;;;;;;5059452;28;20170;-35
2023/01/01 05:11:26;;;;;;;5.43;4.07;;;12.30;99.90;;;;;;5059251;28;20703;-36
2023/01/01 05:13:53;;;;;;;6.80;4.90;;;12.20;99.90;;;;;;5058490;28;20456;-36
2023/01/01 05:16:21;;;;;;;5.90;4.73;;;12.20;99.90;;;;;;5059609;28;20804;-36
2023/01/01 05:18:47;;;;;;;7.30;5.43;;;12.30;99.90;;;;;;5059168;28;20439;-37
2023/01/01 05:21:16;;;;;;;6.30;4.60;;;12.30;99.90;;;;;;5059313;28;20421;-36
2023/01/01 05:23:42;;;;;;;6.37;4.60;;;12.30;99.90;;;;;;5060266;28;20493;-35
2023/01/01 05:26:19;;;;;;;5.73;4.43;;;12.20;99.90;;;;;;5059158;28;20405;-37
2023/01/01 05:28:45;;;;;;;4.90;4.40;;;12.30;99.90;;;;;;5059466;28;20839;-36
2023/01/01 05:31:14;;;;;;;6.33;4.83;;;12.30;99.90;;;;;;5059576;28;21015;-36
2023/01/01 05:33:40;;;;;;;6.03;5.40;;;12.30;99.90;;;;;;5058945;28;20493;-37
2023/01/01 05:36:08;;;;;;;5.43;4.47;;;12.30;99.90;;;;;;5057262;28;20423;-37
2023/01/01 05:38:34;;;;;;;5.10;4.60;;;12.20;99.90;;;;;;5057402;28;20416;-36
2023/01/01 05:41:07;;;;;;;5.27;4.77;;;12.20;99.90;;;;;;5058953;28;20882;-36
2023/01/01 05:43:33;;;;;;;5.73;4.20;;;12.20;99.90;;;;;;5059839;28;20568;-36
2023/01/01 05:46:16;;;;;;;7.47;5.30;;;12.20;99.90;;;;;;5041392;28;20578;-36
2023/01/01 05:48:43;;;;;;;5.90;4.70;;;12.20;99.90;;;;;;5058572;28;20735;-37
2023/01/01 05:51:14;;;;;;;5.70;5.00;;;12.20;99.90;;;;;;5058729;28;20432;-37
2023/01/01 05:53:40;;;;;;;5.37;4.67;;;12.20;99.90;;;;;;5058773;28;20502;-36
2023/01/01 05:56:06;;;;;;;4.47;3.73;;;12.20;99.90;;;;;;5058770;28;20433;-36
2023/01/01 05:58:33;;;;;;;6.60;4.70;;;12.20;99.90;;;;;;5059172;28;20162;-37
2023/01/01 06:01:14;;;;;;;4.60;4.17;;;12.20;99.90;;;;;;5059218;28;20480;-36
2023/01/01 06:03:40;;;;;;;7.10;4.90;;;12.20;99.90;;;;;;5056924;28;20432;-36
2023/01/01 06:06:09;;;;;;;5.87;5.13;;;12.20;99.90;;;;;;5056724;28;20447;-36
2023/01/01 06:08:58;;;;;;;5.13;4.63;;;12.10;99.90;;;;;;5057556;28;20905;-37
2023/01/01 06:11:25;;;;;;;5.23;4.70;;;12.10;99.90;;;;;;5058009;28;20831;-36
2023/01/01 06:14:13;;;;;;;5.63;5.07;;;12.10;99.90;;;;;;5055643;28;20468;-36
2023/01/01 06:16:38;;;;;;;5.43;4.73;;;12.10;99.90;;;;;;5056782;28;20826;-36
2023/01/01 06:19:04;;;;;;;6.97;5.43;;;12.10;99.90;;;;;;5057657;28;20515;-36
2023/01/01 06:21:29;;;;;;;7.00;5.30;;;12.00;99.90;;;;;;5056011;28;20282;-36
2023/01/01 06:24:03;;;;;;;6.57;4.70;;;12.00;99.90;;;;;;5055982;28;20174;-36
2023/01/01 06:26:30;;;;;;;5.40;4.43;;;12.00;99.90;;;;;;5056237;28;20181;-36
2023/01/01 06:29:04;;;;;;;6.00;4.10;;;12.00;99.90;;;;;;5056882;28;20916;-36
2023/01/01 06:31:30;;;;;;;6.23;4.90;;;11.90;99.90;;;;;;5056869;28;20424;-36
2023/01/01 06:33:57;;;;;;;6.00;5.20;;;11.90;99.90;;;;;;5055683;28;20743;-35
2023/01/01 06:36:23;;;;;;;4.87;4.40;;;11.90;1.00;;;;;;5055354;28;20442;-35
2023/01/01 06:38:51;;;;;;;5.80;5.20;;;11.90;1.00;;;;;;5055627;28;20463;-36
2023/01/01 06:41:19;;;;;;;5.67;4.97;;;11.90;1.00;;;;;;5054679;28;21010;-36
2023/01/01 06:43:45;;;;;;;5.20;3.97;;;11.90;1.00;;;;;;5054167;28;20464;-36
2023/01/01 06:46:23;;;;;;;4.43;4.03;;;11.90;1.00;;;;;;5052652;28;20416;-37
2023/01/01 06:48:50;;;;;;;4.87;4.03;;;11.90;1.00;;;;;;5054087;28;20427;-36
2023/01/01 06:51:18;;;;;;;5.77;4.73;;;11.90;1.00;;;;;;5052574;28;20766;-36
2023/01/01 06:53:44;;;;;;;5.67;4.57;;;11.80;1.00;;;;;;5053906;28;21085;-36
2023/01/01 06:56:10;;;;;;;6.23;5.20;;;11.80;1.00;;;;;;5054211;28;20412;-35
2023/01/01 06:58:36;;;;;;;5.10;4.37;;;11.80;1.00;;;;;;5054651;28;20403;-36
2023/01/01 07:01:16;;;;;;;6.37;4.97;;;11.80;1.00;;;;;;5056685;28;20417;-36
2023/01/01 07:03:43;;;;;;;5.23;4.67;;;11.80;1.00;;;;;;5054570;28;20204;-35
2023/01/01 07:06:09;;;;;;;6.63;4.93;;;11.80;1.00;;;;;;5054304;28;20408;-36
2023/01/01 07:08:36;;;;;;;4.87;4.30;;;11.80;1.00;;;;;;5053920;28;20416;-36
2023/01/01 07:11:02;;;;;;;5.33;4.60;;;11.80;1.00;;;;;;5053808;28;20820;-36
2023/01/01 07:13:28;;;;;;;4.40;3.97;;;11.80;1.00;;;;;;5053188;28;20530;-35
2023/01/01 07:15:54;;;;;;;6.67;4.77;;;11.80;1.00;;;;;;5054986;28;20704;-36
2023/01/01 07:18:21;;;;;;;4.93;4.10;;;11.80;99.90;;;;;;5055555;28;20424;-37
2023/01/01 07:20:57;;;;;;;5.37;4.40;;;11.80;99.90;;;;;;5055297;28;20470;-36
2023/01/01 07:23:24;;;;;;;5.53;4.87;;;11.90;99.90;;;;;;5056081;28;20870;-37
2023/01/01 07:25:50;;;;;;;5.60;3.90;;;11.90;99.90;;;;;;5056243;28;20568;-36
2023/01/01 07:28:16;;;;;;;6.37;4.37;;;11.90;99.90;;;;;;5056201;28;20448;-36
2023/01/01 07:30:42;;;;;;;7.13;4.80;;;11.90;99.90;;;;;;5055840;28;20416;-36
2023/01/01 07:33:12;;;;;;;4.97;4.40;;;12.00;99.90;;;;;;5055424;28;20350;-36
2023/01/01 07:35:39;;;;;;;5.80;4.60;;;12.00;99.90;;;;;;5055234;28;20581;-36
2023/01/01 07:38:04;;;;;;;5.10;3.80;;;12.10;99.90;;;;;;5056204;28;20439;-36
2023/01/01 07:40:30;;;;;;;4.00;3.47;;;12.20;18.30;;;;;;5055336;28;20405;-37
2023/01/01 07:42:55;;;;;;;4.77;4.33;;;12.30;1.00;;;;;;5055668;28;20265;-36
2023/01/01 07:45:21;;;;;;;4.93;4.40;;;12.30;1.00;;;;;;5055217;28;20265;-36
2023/01/01 07:47:55;;;;;;;4.70;4.07;;;12.40;1.00;;;;;;5052063;28;20181;-36
2023/01/01 07:50:21;;;;;;;6.10;4.83;;;12.50;99.90;;;;;;5053723;28;20481;-37
2023/01/01 07:52:47;;;;;;;4.77;3.97;;;12.60;99.90;;;;;;5054198;28;20428;-39
2023/01/01 07:55:14;;;;;;;6.27;4.30;;;12.70;99.90;;;;;;5054423;28;20438;-37
2023/01/01 07:57:41;;;;;;;4.67;3.90;;;12.80;1.00;;;;;;5056603;28;20185;-35
2023/01/01 08:00:07;;;;;;;5.23;4.13;;;12.90;1.00;;;;;;5059623;28;20454;-37
2023/01/01 08:02:33;;;;;;;4.53;4.03;;;13.00;1.00;;;;;;5061515;28;20435;-37
2023/01/01 08:04:59;;;;;;;5.10;4.30;;;13.20;1.00;;;;;;5060670;28;20412;-36
2023/01/01 08:07:24;;;;;;;4.60;4.10;;;13.40;99.90;;;;;;5061879;28;20177;-37
2023/01/01 08:09:50;;;;;;;7.50;5.03;;;13.60;99.90;;;;;;5061805;28;20264;-36
2023/01/01 08:12:16;;;;;;;5.40;4.30;;;13.80;1.00;;;;;;5060886;28;20256;-39
2023/01/01 08:14:43;;;;;;;4.70;4.30;;;13.90;1.00;;;;;;5061452;28;20287;-37
2023/01/01 08:17:08;;;;;;;4.80;4.30;;;14.00;1.00;;;;;;5059239;28;20466;-36
2023/01/01 08:19:34;;;;;;;5.10;3.77;;;14.10;1.00;;;;;;5061826;28;20412;-37
2023/01/01 08:21:59;;;;;;;6.00;4.33;;;14.10;1.00;;;;;;5061412;28;20571;-36
2023/01/01 08:24:25;;;;;;;6.13;4.37;;;14.20;1.00;;;;;;5064390;28;20243;-37
2023/01/01 08:26:51;;;;;;;5.50;4.50;;;14.20;1.00;;;;;;5069507;28;20186;-37
2023/01/01 08:29:17;;;;;;;4.60;4.00;;;14.30;1.00;;;;;;5068997;28;20181;-39
2023/01/01 08:31:42;;;;;;;5.60;4.47;;;14.30;99.90;;;;;;5068851;28;20186;-36
2023/01/01 08:34:08;;;;;;;5.47;4.03;;;14.40;99.90;;;;;;5068288;28;20513;-36
2023/01/01 08:36:34;;;;;;;4.90;3.67;;;14.60;99.90;;;;;;5059498;28;20425;-37
2023/01/01 08:38:59;;;;;;;4.00;3.60;;;14.70;99.90;;;;;;5057676;28;20237;-36
2023/01/01 08:41:25;;;;;;;4.50;3.87;;;15.00;99.90;;;;;;5059176;28;20432;-37
2023/01/01 08:43:51;;;;;;;7.53;5.00;;;15.50;99.90;;;;;;5059696;28;20315;-37
2023/01/01 08:46:17;;;;;;;4.20;3.80;;;16.20;99.90;;;;;;5058078;28;20534;-37
2023/01/01 08:48:42;;;;;;;4.23;3.83;;;16.90;49.30;;;;;;5057777;28;20158;-37
2023/01/01 08:51:09;;;;;;;4.20;3.27;;;17.40;1.00;;;;;;5057334;28;20731;-37
2023/01/01 08:53:34;;;;;;;5.73;3.90;;;18.00;1.00;;;;;;5058288;28;20205;-38
2023/01/01 08:56:08;;;;;;;4.40;3.30;;;18.90;1.00;;;;;;5058429;28;20667;-37
2023/01/01 08:58:35;;;;;;;5.93;4.37;;;19.80;1.00;;;;;;5057804;28;20255;-36
2023/01/01 09:01:01;;;;;;;4.77;3.67;;;20.50;1.00;;;;;;5058311;28;20716;-38
2023/01/01 09:03:27;;;;;;;5.13;3.67;;;21.10;1.00;;;;;;5059088;28;20541;-38
2023/01/01 09:05:53;;;;;;;4.30;3.63;;;21.60;1.00;;;;;;5058313;28;20462;-37
2023/01/01 09:08:19;;;;;;;4.13;3.13;;;22.10;1.00;;;;;;5054985;28;20937;-38
2023/01/01 09:10:45;;;;;;;4.43;3.77;;;22.60;1.00;;;;;;5056165;28;20185;-38
2023/01/01 09:13:13;;;;;;;4.37;3.70;;;23.50;1.00;;;;;;5055054;28;20476;-38
2023/01/01 09:15:39;;;;;;;6.40;4.17;;;24.20;1.00;;;;;;5057960;28;20470;-39
2023/01/01 09:18:04;;;;;;;5.07;3.70;;;24.90;1.00;;;;;;5058230;28;20432;-39
2023/01/01 09:20:30;;;;;;;3.97;3.57;;;25.30;1.00;;;;;;5058117;28;20252;-38
2023/01/01 09:22:56;;;;;;;5.50;3.63;;;25.30;1.00;;;;;;5058086;28;20224;-40
2023/01/01 09:25:22;;;;;;;4.20;3.80;;;25.60;1.00;;;;;;5058314;28;20178;-38
2023/01/01 09:27:47;;;;;;;3.97;3.57;;;25.80;1.00;;;;;;5057959;28;20166;-40
2023/01/01 09:30:14;;;;;;;4.50;4.07;;;26.10;1.00;;;;;;5057064;28;20188;-37
2023/01/01 09:32:40;;;;;;;4.57;4.17;;;26.40;1.00;;;;;;5058122;28;20228;-40
2023/01/01 09:35:08;;;;;;;4.10;3.70;;;26.60;1.00;;;;;;5056964;28;20531;-39
2023/01/01 09:37:34;;;;;;;5.50;3.83;;;26.50;1.00;;;;;;5057803;28;20217;-37
2023/01/01 09:39:59;;;;;;;5.17;4.13;;;26.10;1.00;;;;;;5058432;28;20459;-38
2023/01/01 09:42:38;;;;;;;4.43;4.03;;;25.90;1.00;;;;;;5058473;28;20239;-39
2023/01/01 09:45:18;;;;;;;4.97;4.43;;;25.70;1.00;;;;;;5058144;28;20169;-39
2023/01/01 09:47:53;;;;;;;5.67;3.90;;;25.60;1.00;;;;;;5058943;28;20730;-39
2023/01/01 09:50:24;;;;;;;4.83;3.97;;;25.40;1.00;;;;;;5056836;28;20691;-38
2023/01/01 09:52:58;;;;;;;5.17;4.67;;;25.50;1.00;;;;;;5057127;28;20816;-38
2023/01/01 09:55:45;;;;;;;4.27;3.87;;;25.90;1.00;;;;;;5056057;28;20428;-38
2023/01/01 09:58:11;;;;;;;6.20;5.00;;;26.40;1.00;;;;;;5058167;28;20424;-38
2023/01/01 10:00:40;;;;;;;4.63;4.10;;;26.80;1.00;;;;;;5057014;28;20971;-37
2023/01/01 10:03:05;;;;;;;4.60;4.17;;;27.30;1.00;;;;;;5055559;28;20436;-37
2023/01/01 10:05:43;;;;;;;4.37;3.97;;;27.50;1.00;;;;;;5056167;28;20417;-37
2023/01/01 10:08:27;;;;;;;4.67;4.10;;;27.90;1.00;;;;;;5054483;28;20182;-38
2023/01/01 10:11:13;;;;;;;5.47;4.43;;;28.20;1.00;;;;;;5053878;28;20408;-38
2023/01/01 10:13:42;;;;;;;5.00;4.50;;;28.40;1.00;;;;;;5054714;28;20541;-39
2023/01/01 10:16:26;;;;;;;4.53;4.13;;;28.60;1.00;;;;;;5055556;28;20811;-40
2023/01/01 10:18:56;;;;;;;4.90;4.50;;;28.70;1.00;;;;;;5055201;28;20843;-39
2023/01/01 10:21:30;;;;;;;5.10;4.20;;;28.90;1.00;;;;;;5055573;28;20416;-39
2023/01/01 10:24:23;;;;;;;4.83;4.13;;;29.10;1.00;;;;;;5056934;28;20843;-40
2023/01/01 10:26:49;;;;;;;4.83;4.33;;;29.30;1.00;;;;;;5056059;28;20462;-38
2023/01/01 10:29:34;;;;;;;4.53;4.13;;;29.10;1.00;;;;;;5055441;28;20424;-39
2023/01/01 10:32:24;;;;;;;4.73;4.30;;;29.00;1.00;;;;;;5054413;28;20438;-36
2023/01/01 10:34:50;;;;;;;4.70;4.30;;;28.70;1.00;;;;;;5056470;28;20608;-37
2023/01/01 10:37:17;;;;;;;5.40;4.70;;;28.60;1.00;;;;;;5056941;28;20435;-37
2023/01/01 10:39:44;;;;;;;5.20;4.20;;;28.70;1.00;;;;;;5054292;28;20847;-39
2023/01/01 10:42:12;;;;;;;5.10;4.60;;;29.00;1.00;;;;;;5053790;28;20448;-40
2023/01/01 10:44:38;;;;;;;4.47;3.70;;;29.30;1.00;;;;;;5054337;28;20806;-38
2023/01/01 10:47:24;;;;;;;4.10;3.60;;;29.40;1.00;;;;;;5053996;28;20440;-39
2023/01/01 10:50:04;;;;;;;4.43;4.00;;;29.50;1.00;;;;;;5055239;28;20387;-38
2023/01/01 10:52:37;;;;;;;4.67;4.13;;;29.70;1.00;;;;;;5054870;28;20416;-37
2023/01/01 10:55:03;;;;;;;4.13;3.70;;;30.00;1.00;;;;;;5055483;28;20557;-39
2023/01/01 10:57:30;;;;;;;5.07;4.57;;;30.20;1.00;;;;;;5055951;28;20810;-38
2023/01/01 11:00:15;;;;;;;5.23;4.20;;;30.70;1.00;;;;;;5056208;28;20391;-39
2023/01/01 11:02:41;;;;;;;5.20;4.23;;;30.80;1.00;;;;;;5055870;28;20410;-39
2023/01/01 11:05:20;;;;;;;5.90;4.40;;;31.20;1.00;;;;;;5056166;28;20727;-38
2023/01/01 11:07:46;;;;;;;5.40;4.10;;;31.70;1.00;;;;;;5057179;28;20197;-39
2023/01/01 11:10:20;;;;;;;5.57;4.17;;;32.30;1.00;;;;;;5056739;28;20717;-37
2023/01/01 11:12:47;;;;;;;4.10;3.67;;;32.90;1.00;;;;;;5054728;28;20701;-38
2023/01/01 11:15:40;;;;;;;4.67;4.27;;;33.60;1.00;;;;;;5055694;28;20467;-38
2023/01/01 11:18:11;;;;;;;5.60;3.60;;;34.10;1.00;;;;;;5055445;28;20410;-39
2023/01/01 11:20:37;;;;;;;4.50;4.10;;;34.70;1.00;;;;;;5056469;28;20488;-39
2023/01/01 11:23:32;;;;;;;5.47;3.43;;;35.30;1.00;;;;;;5055598;28;20526;-41
2023/01/01 11:25:59;;;;;;;5.07;4.47;;;36.00;1.00;;;;;;5057946;28;20205;-39
2023/01/01 11:28:25;;;;;;;4.20;3.73;;;36.40;1.00;;;;;;5056784;28;20518;-38
2023/01/01 11:31:08;;;;;;;4.43;3.63;;;36.70;1.00;;;;;;5056289;28;20828;-39
2023/01/01 11:33:48;;;;;;;4.33;3.90;;;37.20;1.00;;;;;;5054891;28;20471;-40
2023/01/01 11:36:24;;;;;;;5.20;3.33;;;37.60;1.00;;;;;;5054781;28;20411;-39
2023/01/01 11:39:16;;;;;;;3.43;3.13;;;37.80;1.00;;;;;;5057105;28;20519;-39
2023/01/01 11:41:50;;;;;;;2.70;2.10;;;37.90;1.00;;;;;;5053434;28;20432;-40
2023/01/01 11:44:45;;;;;;;2.57;1.97;;;37.70;1.00;;;;;;5053746;28;20506;-40
2023/01/01 11:47:29;;;;;;;3.40;2.70;;;37.30;1.00;;;;;;5054998;28;20438;-39
2023/01/01 11:50:04;;;;;;;3.60;2.60;;;36.90;1.00;;;;;;5053289;28;20413;-41
2023/01/01 11:53:17;;;;;;;3.87;2.60;;;36.70;1.00;;;;;;5054010;28;20413;-41
2023/01/01 11:55:47;;;;;;;2.97;2.67;;;36.40;1.00;;;;;;5052158;28;20535;-42
2023/01/01 11:58:27;;;;;;;3.03;2.50;;;36.60;1.00;;;;;;5055334;28;21085;-43
2023/01/01 12:01:00;;;;;;;3.60;2.80;;;36.70;1.00;;;;;;5054244;28;20418;-41
2023/01/01 12:03:25;;;;;;;8.97;3.53;;;36.80;1.00;;;;;;5055770;28;20395;-39
2023/01/01 12:06:02;;;;;;;4.07;2.60;;;36.80;1.00;;;;;;5055130;28;20414;-39
2023/01/01 12:08:43;;;;;;;4.27;2.80;;;36.50;1.00;;;;;;5056907;28;20258;-40
2023/01/01 12:11:28;;;;;;;4.53;2.70;;;36.40;1.00;;;;;;5056475;28;20862;-42
2023/01/01 12:13:58;;;;;;;4.77;3.50;;;36.40;1.00;;;;;;5054686;28;20479;-40
2023/01/01 12:16:44;;;;;;;4.20;3.20;;;36.40;1.00;;;;;;5055513;28;20460;-42
2023/01/01 12:19:15;;;;;;;4.30;2.80;;;36.50;1.00;;;;;;5054698;28;20390;-41
2023/01/01 12:21:42;;;;;;;3.67;3.07;;;36.50;1.00;;;;;;5054280;28;20463;-40
2023/01/01 12:24:11;;;;;;;9.07;3.00;;;36.60;1.00;;;;;;5056408;28;20427;-41
2023/01/01 12:26:52;;;;;;;3.77;2.77;;;36.70;1.00;;;;;;5054808;28;20698;-43
2023/01/01 12:29:35;;;;;;;4.23;3.40;;;36.90;1.00;;;;;;5055591;28;20415;-40
2023/01/01 12:32:13;;;;;;;4.70;3.17;;;36.80;1.00;;;;;;5056032;28;20431;-42
2023/01/01 12:34:53;;;;;;;5.40;3.73;;;36.60;1.00;;;;;;5055257;28;20887;-39
2023/01/01 12:37:31;;;;;;;5.93;3.20;;;36.70;1.00;;;;;;5055904;28;20604;-39
2023/01/01 12:40:00;;;;;;;13.33;4.00;;;36.70;1.00;;;;;;5055878;28;20416;-40
2023/01/01 12:42:45;;;;;;;8.73;4.00;;;36.80;1.00;;;;;;5054969;28;20836;-38
2023/01/01 12:45:34;;;;;;;8.03;3.63;;;36.70;1.00;;;;;;5059559;28;20440;-39
2023/01/01 12:48:36;;;;;;;3.67;3.20;;;36.70;1.00;;;;;;5059068;28;20478;-38
2023/01/01 12:51:13;;;;;;;7.93;3.60;;;36.80;1.00;;;;;;5057631;28;20427;-40
2023/01/01 12:54:02;;;;;;;4.33;3.50;;;36.70;1.00;;;;;;5059875;28;20458;-41
2023/01/01 12:56:45;;;;;;;4.73;3.40;;;36.50;1.00;;;;;;5060150;28;20746;-41
2023/01/01 12:59:21;;;;;;;6.67;3.23;;;36.50;1.00;;;;;;5057932;28;20681;-40
2023/01/01 13:01:47;;;;;;;5.90;3.00;;;36.40;1.00;;;;;;5058740;28;20435;-39
2023/01/01 13:04:18;;;;;;;4.33;2.80;;;36.50;1.00;;;;;;5058514;28;20416;-40
2023/01/01 13:07:07;;;;;;;4.80;3.07;;;36.50;1.00;;;;;;5059009;28;20439;-42
2023/01/01 13:09:35;;;;;;;4.33;3.10;;;36.30;1.00;;;;;;5058726;28;20452;-39
2023/01/01 13:12:11;;;;;;;3.20;2.90;;;36.00;1.00;;;;;;5058119;28;20439;-40
2023/01/01 13:14:38;;;;;;;7.17;3.73;;;35.80;1.00;;;;;;5061040;28;20467;-39
2023/01/01 13:17:19;;;;;;;3.53;3.23;;;35.80;1.00;;;;;;5061962;28;20523;-40
2023/01/01 13:19:46;;;;;;;3.73;3.00;;;35.80;1.00;;;;;;5059887;28;20486;-39